ENBR/BGO METAR and TAF weather

Enter ICAO airport designator
Station Type Date Time Source
ENBR METAR 2020/07/15 06:50 UTC NOAA

ENBR 150650Z VRB02KT 9999 FEW009 SCT015 BKN025 14/12 Q1009 NOSIG RMK WIND 1200FT VRB02KT


Station Type Date Time Source
ENBR Decoded METAR 2020/07/15 06:50 UTC NOAA

Bergen / Flesland, Norway (ENBR) 60-17N 005-14E 50M
Jul 15, 2020 - 02:50 AM EDT / 2020.07.15 0650 UTC
Wind: Variable at 2 MPH (2 KT):0
Visibility: greater than 7 mile(s):0
Sky conditions: mostly cloudy
Temperature: 57 F (14 C)
Dew Point: 53 F (12 C)
Relative Humidity: 87%
Pressure (altimeter): 29.80 in. Hg (1009 hPa)
ob: ENBR 150650Z VRB02KT 9999 FEW009 SCT015 BKN025 14/12 Q1009 NOSIG RMK WIND 1200FT VRB02KT
cycle: 7

Station Type Date Time Source
ENBR TAF 2020/07/15 06:57 UTC NOAA

TAF ENBR 150500Z 1506/1606 VRB05KT 9999 FEW010 BKN020
TEMPO 1506/1510 BKN008 PROB30 1600/1606 0500 FG VV002

Example: see airport list